sensor_id;sensor_type;location;lat;lon;timestamp;P1;durP1;ratioP1;P2;durP2;ratioP2
3083;SDS011;1552;51.952;7.618;2023-06-19T00:01:35;9.13;;;7.25;;
3083;SDS011;1552;51.952;7.618;2023-06-19T00:04:02;7.85;;;6.55;;
3083;SDS011;1552;51.952;7.618;2023-06-19T00:06:28;7.90;;;6.93;;
3083;SDS011;1552;51.952;7.618;2023-06-19T00:08:54;9.50;;;6.90;;
3083;SDS011;1552;51.952;7.618;2023-06-19T00:11:22;7.85;;;6.70;;
3083;SDS011;1552;51.952;7.618;2023-06-19T00:13:49;8.38;;;7.38;;
3083;SDS011;1552;51.952;7.618;2023-06-19T00:16:15;8.52;;;7.30;;
3083;SDS011;1552;51.952;7.618;2023-06-19T00:18:43;9.02;;;7.20;;
3083;SDS011;1552;51.952;7.618;2023-06-19T00:21:09;7.68;;;6.88;;
3083;SDS011;1552;51.952;7.618;2023-06-19T00:23:35;8.52;;;7.30;;
3083;SDS011;1552;51.952;7.618;2023-06-19T00:26:02;10.55;;;7.15;;
3083;SDS011;1552;51.952;7.618;2023-06-19T00:28:29;7.55;;;6.78;;
3083;SDS011;1552;51.952;7.618;2023-06-19T00:30:56;8.95;;;6.93;;
3083;SDS011;1552;51.952;7.618;2023-06-19T00:33:22;7.75;;;6.57;;
3083;SDS011;1552;51.952;7.618;2023-06-19T00:35:49;7.75;;;6.95;;
3083;SDS011;1552;51.952;7.618;2023-06-19T00:38:16;9.93;;;7.00;;
3083;SDS011;1552;51.952;7.618;2023-06-19T00:40:42;6.82;;;6.13;;
3083;SDS011;1552;51.952;7.618;2023-06-19T00:43:08;7.70;;;6.78;;
3083;SDS011;1552;51.952;7.618;2023-06-19T00:45:36;7.65;;;6.85;;
3083;SDS011;1552;51.952;7.618;2023-06-19T00:48:03;8.75;;;7.85;;
3083;SDS011;1552;51.952;7.618;2023-06-19T00:50:30;9.52;;;7.00;;
3083;SDS011;1552;51.952;7.618;2023-06-19T00:52:57;9.35;;;7.55;;
3083;SDS011;1552;51.952;7.618;2023-06-19T00:55:23;7.78;;;6.97;;
3083;SDS011;1552;51.952;7.618;2023-06-19T00:57:51;8.85;;;7.20;;
3083;SDS011;1552;51.952;7.618;2023-06-19T01:00:18;7.65;;;6.85;;
3083;SDS011;1552;51.952;7.618;2023-06-19T01:02:46;8.07;;;6.63;;
3083;SDS011;1552;51.952;7.618;2023-06-19T01:05:12;7.70;;;6.85;;
3083;SDS011;1552;51.952;7.618;2023-06-19T01:07:40;8.95;;;6.93;;
3083;SDS011;1552;51.952;7.618;2023-06-19T01:10:09;8.43;;;7.03;;
3083;SDS011;1552;51.952;7.618;2023-06-19T01:12:37;7.70;;;6.65;;
3083;SDS011;1552;51.952;7.618;2023-06-19T01:15:05;8.13;;;7.10;;
3083;SDS011;1552;51.952;7.618;2023-06-19T01:17:32;10.20;;;7.15;;
3083;SDS011;1552;51.952;7.618;2023-06-19T01:20:00;8.65;;;6.82;;
3083;SDS011;1552;51.952;7.618;2023-06-19T01:22:33;10.27;;;8.57;;
3083;SDS011;1552;51.952;7.618;2023-06-19T01:24:59;8.85;;;6.65;;
3083;SDS011;1552;51.952;7.618;2023-06-19T01:27:25;9.50;;;7.45;;
3083;SDS011;1552;51.952;7.618;2023-06-19T01:29:54;8.45;;;6.22;;
3083;SDS011;1552;51.952;7.618;2023-06-19T01:32:22;8.65;;;7.20;;
3083;SDS011;1552;51.952;7.618;2023-06-19T01:34:52;8.55;;;6.88;;
3083;SDS011;1552;51.952;7.618;2023-06-19T01:37:18;10.73;;;6.72;;
3083;SDS011;1552;51.952;7.618;2023-06-19T01:39:46;8.68;;;7.30;;
3083;SDS011;1552;51.952;7.618;2023-06-19T01:42:13;9.20;;;6.57;;
3083;SDS011;1552;51.952;7.618;2023-06-19T01:44:40;7.35;;;6.20;;
3083;SDS011;1552;51.952;7.618;2023-06-19T01:47:08;8.10;;;6.75;;
3083;SDS011;1552;51.952;7.618;2023-06-19T01:49:34;8.35;;;7.03;;
3083;SDS011;1552;51.952;7.618;2023-06-19T01:52:00;9.07;;;7.18;;
3083;SDS011;1552;51.952;7.618;2023-06-19T01:54:27;9.38;;;7.07;;
3083;SDS011;1552;51.952;7.618;2023-06-19T01:56:54;7.18;;;6.47;;
3083;SDS011;1552;51.952;7.618;2023-06-19T01:59:21;7.28;;;6.55;;
3083;SDS011;1552;51.952;7.618;2023-06-19T02:01:47;7.75;;;6.45;;
3083;SDS011;1552;51.952;7.618;2023-06-19T02:04:13;7.70;;;6.90;;
3083;SDS011;1552;51.952;7.618;2023-06-19T02:06:39;7.95;;;7.15;;
3083;SDS011;1552;51.952;7.618;2023-06-19T02:09:06;8.07;;;6.30;;
3083;SDS011;1552;51.952;7.618;2023-06-19T02:11:33;8.25;;;6.70;;
3083;SDS011;1552;51.952;7.618;2023-06-19T02:14:00;8.20;;;7.35;;
3083;SDS011;1552;51.952;7.618;2023-06-19T02:16:27;9.20;;;7.10;;
3083;SDS011;1552;51.952;7.618;2023-06-19T02:18:53;7.18;;;6.43;;
3083;SDS011;1552;51.952;7.618;2023-06-19T02:21:20;7.63;;;6.60;;
3083;SDS011;1552;51.952;7.618;2023-06-19T02:23:46;8.10;;;7.00;;
3083;SDS011;1552;51.952;7.618;2023-06-19T02:26:13;10.90;;;6.47;;
3083;SDS011;1552;51.952;7.618;2023-06-19T02:28:40;6.50;;;5.80;;
3083;SDS011;1552;51.952;7.618;2023-06-19T02:31:07;7.45;;;6.57;;
3083;SDS011;1552;51.952;7.618;2023-06-19T02:33:34;6.82;;;6.15;;
3083;SDS011;1552;51.952;7.618;2023-06-19T02:36:00;9.77;;;6.28;;
3083;SDS011;1552;51.952;7.618;2023-06-19T02:38:28;7.75;;;5.95;;
3083;SDS011;1552;51.952;7.618;2023-06-19T02:40:54;6.93;;;6.20;;
3083;SDS011;1552;51.952;7.618;2023-06-19T02:43:22;6.57;;;5.95;;
3083;SDS011;1552;51.952;7.618;2023-06-19T02:45:48;6.60;;;5.93;;
3083;SDS011;1552;51.952;7.618;2023-06-19T02:48:16;6.50;;;5.90;;
3083;SDS011;1552;51.952;7.618;2023-06-19T02:50:42;7.00;;;6.28;;
3083;SDS011;1552;51.952;7.618;2023-06-19T02:53:09;8.00;;;6.30;;
3083;SDS011;1552;51.952;7.618;2023-06-19T02:55:36;6.70;;;6.10;;
3083;SDS011;1552;51.952;7.618;2023-06-19T02:58:02;6.75;;;5.57;;
3083;SDS011;1552;51.952;7.618;2023-06-19T03:00:28;6.93;;;6.05;;
3083;SDS011;1552;51.952;7.618;2023-06-19T03:02:55;7.05;;;6.32;;
3083;SDS011;1552;51.952;7.618;2023-06-19T03:05:23;9.23;;;6.32;;
3083;SDS011;1552;51.952;7.618;2023-06-19T03:07:52;8.25;;;6.18;;
3083;SDS011;1552;51.952;7.618;2023-06-19T03:10:18;6.80;;;6.10;;
3083;SDS011;1552;51.952;7.618;2023-06-19T03:12:44;8.10;;;6.43;;
3083;SDS011;1552;51.952;7.618;2023-06-19T03:15:11;8.48;;;5.75;;
3083;SDS011;1552;51.952;7.618;2023-06-19T03:17:37;6.85;;;5.82;;
3083;SDS011;1552;51.952;7.618;2023-06-19T03:20:04;6.80;;;6.10;;
3083;SDS011;1552;51.952;7.618;2023-06-19T03:22:32;6.50;;;5.80;;
3083;SDS011;1552;51.952;7.618;2023-06-19T03:24:58;6.97;;;6.13;;
3083;SDS011;1552;51.952;7.618;2023-06-19T03:27:25;7.25;;;5.95;;
3083;SDS011;1552;51.952;7.618;2023-06-19T03:29:52;7.03;;;6.25;;
3083;SDS011;1552;51.952;7.618;2023-06-19T03:32:19;8.73;;;6.53;;
3083;SDS011;1552;51.952;7.618;2023-06-19T03:34:45;7.78;;;6.20;;
3083;SDS011;1552;51.952;7.618;2023-06-19T03:37:13;7.30;;;6.10;;
3083;SDS011;1552;51.952;7.618;2023-06-19T03:39:41;7.55;;;6.20;;
3083;SDS011;1552;51.952;7.618;2023-06-19T03:42:07;8.32;;;6.45;;
3083;SDS011;1552;51.952;7.618;2023-06-19T03:44:34;9.20;;;6.32;;
3083;SDS011;1552;51.952;7.618;2023-06-19T03:47:00;7.97;;;6.13;;
3083;SDS011;1552;51.952;7.618;2023-06-19T03:49:26;6.63;;;6.03;;
3083;SDS011;1552;51.952;7.618;2023-06-19T03:51:53;9.88;;;6.18;;
3083;SDS011;1552;51.952;7.618;2023-06-19T03:54:19;8.60;;;6.43;;
3083;SDS011;1552;51.952;7.618;2023-06-19T03:56:47;7.10;;;6.38;;
3083;SDS011;1552;51.952;7.618;2023-06-19T03:59:14;8.95;;;6.65;;
3083;SDS011;1552;51.952;7.618;2023-06-19T04:01:40;7.78;;;6.72;;
3083;SDS011;1552;51.952;7.618;2023-06-19T04:04:06;9.35;;;6.75;;
3083;SDS011;1552;51.952;7.618;2023-06-19T04:06:33;7.60;;;6.15;;
3083;SDS011;1552;51.952;7.618;2023-06-19T04:08:59;8.52;;;6.68;;
3083;SDS011;1552;51.952;7.618;2023-06-19T04:11:26;7.40;;;6.60;;
3083;SDS011;1552;51.952;7.618;2023-06-19T04:13:53;6.90;;;6.00;;
3083;SDS011;1552;51.952;7.618;2023-06-19T04:16:20;7.28;;;6.07;;
3083;SDS011;1552;51.952;7.618;2023-06-19T04:18:46;6.88;;;6.18;;
3083;SDS011;1552;51.952;7.618;2023-06-19T04:21:13;9.63;;;6.45;;
3083;SDS011;1552;51.952;7.618;2023-06-19T04:23:39;9.23;;;6.80;;
3083;SDS011;1552;51.952;7.618;2023-06-19T04:26:06;8.00;;;6.75;;
3083;SDS011;1552;51.952;7.618;2023-06-19T04:28:32;9.32;;;6.82;;
3083;SDS011;1552;51.952;7.618;2023-06-19T04:31:00;9.15;;;6.80;;
3083;SDS011;1552;51.952;7.618;2023-06-19T04:33:26;11.02;;;6.93;;
3083;SDS011;1552;51.952;7.618;2023-06-19T04:35:53;8.05;;;6.78;;
3083;SDS011;1552;51.952;7.618;2023-06-19T04:38:19;8.60;;;6.88;;
3083;SDS011;1552;51.952;7.618;2023-06-19T04:40:48;7.70;;;6.40;;
3083;SDS011;1552;51.952;7.618;2023-06-19T04:43:14;9.52;;;7.03;;
3083;SDS011;1552;51.952;7.618;2023-06-19T04:45:41;7.43;;;6.22;;
3083;SDS011;1552;51.952;7.618;2023-06-19T04:48:09;8.52;;;6.82;;
3083;SDS011;1552;51.952;7.618;2023-06-19T04:50:35;6.68;;;5.95;;
3083;SDS011;1552;51.952;7.618;2023-06-19T04:53:01;8.40;;;6.20;;
3083;SDS011;1552;51.952;7.618;2023-06-19T04:55:27;7.07;;;5.55;;
3083;SDS011;1552;51.952;7.618;2023-06-19T04:57:55;7.00;;;6.13;;
3083;SDS011;1552;51.952;7.618;2023-06-19T05:00:21;7.68;;;5.30;;
3083;SDS011;1552;51.952;7.618;2023-06-19T05:02:48;9.68;;;6.22;;
3083;SDS011;1552;51.952;7.618;2023-06-19T05:05:16;8.60;;;5.85;;
3083;SDS011;1552;51.952;7.618;2023-06-19T05:07:42;7.38;;;5.80;;
3083;SDS011;1552;51.952;7.618;2023-06-19T05:10:10;6.78;;;5.57;;
3083;SDS011;1552;51.952;7.618;2023-06-19T05:12:36;6.20;;;5.35;;
3083;SDS011;1552;51.952;7.618;2023-06-19T05:15:03;7.45;;;5.40;;
3083;SDS011;1552;51.952;7.618;2023-06-19T05:17:29;9.38;;;6.28;;
3083;SDS011;1552;51.952;7.618;2023-06-19T05:19:55;6.85;;;5.38;;
3083;SDS011;1552;51.952;7.618;2023-06-19T05:22:23;5.97;;;5.13;;
3083;SDS011;1552;51.952;7.618;2023-06-19T05:24:51;6.13;;;5.32;;
3083;SDS011;1552;51.952;7.618;2023-06-19T05:27:18;7.30;;;5.22;;
3083;SDS011;1552;51.952;7.618;2023-06-19T05:29:44;7.45;;;5.53;;
3083;SDS011;1552;51.952;7.618;2023-06-19T05:32:10;6.95;;;5.28;;
3083;SDS011;1552;51.952;7.618;2023-06-19T05:34:37;5.40;;;4.65;;
3083;SDS011;1552;51.952;7.618;2023-06-19T05:37:03;5.20;;;4.25;;
3083;SDS011;1552;51.952;7.618;2023-06-19T05:39:31;6.03;;;4.78;;
3083;SDS011;1552;51.952;7.618;2023-06-19T05:41:57;6.18;;;4.82;;
3083;SDS011;1552;51.952;7.618;2023-06-19T05:44:24;5.45;;;4.72;;
3083;SDS011;1552;51.952;7.618;2023-06-19T05:46:50;6.78;;;5.05;;
3083;SDS011;1552;51.952;7.618;2023-06-19T05:49:16;5.88;;;4.60;;
3083;SDS011;1552;51.952;7.618;2023-06-19T05:51:43;7.15;;;5.53;;
3083;SDS011;1552;51.952;7.618;2023-06-19T05:54:09;7.40;;;5.00;;
3083;SDS011;1552;51.952;7.618;2023-06-19T05:56:37;7.88;;;4.78;;
3083;SDS011;1552;51.952;7.618;2023-06-19T05:59:03;6.63;;;5.18;;
3083;SDS011;1552;51.952;7.618;2023-06-19T06:01:30;6.85;;;4.95;;
3083;SDS011;1552;51.952;7.618;2023-06-19T06:03:56;6.80;;;4.63;;
3083;SDS011;1552;51.952;7.618;2023-06-19T06:06:23;6.68;;;4.47;;
3083;SDS011;1552;51.952;7.618;2023-06-19T06:08:50;5.57;;;4.40;;
3083;SDS011;1552;51.952;7.618;2023-06-19T06:11:17;7.13;;;4.05;;
3083;SDS011;1552;51.952;7.618;2023-06-19T06:13:45;4.57;;;3.85;;
3083;SDS011;1552;51.952;7.618;2023-06-19T06:16:11;5.75;;;3.72;;
3083;SDS011;1552;51.952;7.618;2023-06-19T06:18:37;6.20;;;3.88;;
3083;SDS011;1552;51.952;7.618;2023-06-19T06:21:04;4.07;;;3.22;;
3083;SDS011;1552;51.952;7.618;2023-06-19T06:23:30;5.65;;;3.42;;
3083;SDS011;1552;51.952;7.618;2023-06-19T06:25:56;7.05;;;3.92;;
3083;SDS011;1552;51.952;7.618;2023-06-19T06:28:27;4.47;;;3.67;;
3083;SDS011;1552;51.952;7.618;2023-06-19T06:30:55;6.55;;;3.28;;
3083;SDS011;1552;51.952;7.618;2023-06-19T06:33:21;3.90;;;3.10;;
3083;SDS011;1552;51.952;7.618;2023-06-19T06:35:47;3.58;;;2.95;;
3083;SDS011;1552;51.952;7.618;2023-06-19T06:38:13;5.28;;;2.90;;
3083;SDS011;1552;51.952;7.618;2023-06-19T06:40:40;4.10;;;3.00;;
3083;SDS011;1552;51.952;7.618;2023-06-19T06:43:06;4.25;;;3.40;;
3083;SDS011;1552;51.952;7.618;2023-06-19T06:45:33;5.47;;;3.22;;
3083;SDS011;1552;51.952;7.618;2023-06-19T06:48:04;5.00;;;2.80;;
3083;SDS011;1552;51.952;7.618;2023-06-19T06:50:30;4.20;;;3.17;;
3083;SDS011;1552;51.952;7.618;2023-06-19T06:52:57;5.63;;;3.22;;
3083;SDS011;1552;51.952;7.618;2023-06-19T06:55:23;5.95;;;2.85;;
3083;SDS011;1552;51.952;7.618;2023-06-19T06:57:49;4.97;;;2.88;;
3083;SDS011;1552;51.952;7.618;2023-06-19T07:00:16;6.35;;;3.15;;
3083;SDS011;1552;51.952;7.618;2023-06-19T07:02:43;8.40;;;3.17;;
3083;SDS011;1552;51.952;7.618;2023-06-19T07:05:13;5.38;;;2.75;;
3083;SDS011;1552;51.952;7.618;2023-06-19T07:07:39;4.20;;;2.90;;
3083;SDS011;1552;51.952;7.618;2023-06-19T07:10:05;3.83;;;2.65;;
3083;SDS011;1552;51.952;7.618;2023-06-19T07:12:32;4.43;;;2.38;;
3083;SDS011;1552;51.952;7.618;2023-06-19T07:14:59;4.13;;;2.60;;
3083;SDS011;1552;51.952;7.618;2023-06-19T07:17:25;4.18;;;2.67;;
3083;SDS011;1552;51.952;7.618;2023-06-19T07:19:51;5.22;;;2.95;;
3083;SDS011;1552;51.952;7.618;2023-06-19T07:22:19;3.28;;;2.60;;
3083;SDS011;1552;51.952;7.618;2023-06-19T07:24:45;5.57;;;2.45;;
3083;SDS011;1552;51.952;7.618;2023-06-19T07:27:12;3.08;;;2.60;;
3083;SDS011;1552;51.952;7.618;2023-06-19T07:29:38;3.40;;;2.08;;
3083;SDS011;1552;51.952;7.618;2023-06-19T07:32:05;3.67;;;2.22;;
3083;SDS011;1552;51.952;7.618;2023-06-19T07:34:32;11.40;;;2.88;;
3083;SDS011;1552;51.952;7.618;2023-06-19T07:36:58;6.70;;;2.28;;
3083;SDS011;1552;51.952;7.618;2023-06-19T07:39:26;8.23;;;3.05;;
3083;SDS011;1552;51.952;7.618;2023-06-19T07:41:52;5.18;;;1.90;;
3083;SDS011;1552;51.952;7.618;2023-06-19T07:44:18;2.20;;;2.00;;
3083;SDS011;1552;51.952;7.618;2023-06-19T07:46:46;2.90;;;1.98;;
3083;SDS011;1552;51.952;7.618;2023-06-19T07:49:12;1.95;;;1.80;;
3083;SDS011;1552;51.952;7.618;2023-06-19T07:51:38;4.38;;;2.25;;
3083;SDS011;1552;51.952;7.618;2023-06-19T07:54:05;5.45;;;1.75;;
3083;SDS011;1552;51.952;7.618;2023-06-19T07:56:32;2.47;;;2.10;;
3083;SDS011;1552;51.952;7.618;2023-06-19T07:58:59;2.58;;;1.70;;
3083;SDS011;1552;51.952;7.618;2023-06-19T08:01:25;4.72;;;2.15;;
3083;SDS011;1552;51.952;7.618;2023-06-19T08:03:51;1.98;;;1.77;;
3083;SDS011;1552;51.952;7.618;2023-06-19T08:06:18;2.05;;;1.83;;
3083;SDS011;1552;51.952;7.618;2023-06-19T08:08:44;2.60;;;2.20;;
3083;SDS011;1552;51.952;7.618;2023-06-19T08:11:11;4.47;;;2.35;;
3083;SDS011;1552;51.952;7.618;2023-06-19T08:13:39;2.72;;;1.90;;
3083;SDS011;1552;51.952;7.618;2023-06-19T08:16:05;4.22;;;2.50;;
3083;SDS011;1552;51.952;7.618;2023-06-19T08:18:32;31.23;;;4.88;;
3083;SDS011;1552;51.952;7.618;2023-06-19T08:20:58;2.80;;;2.40;;
3083;SDS011;1552;51.952;7.618;2023-06-19T08:23:24;3.35;;;2.00;;
3083;SDS011;1552;51.952;7.618;2023-06-19T08:25:51;10.65;;;2.90;;
3083;SDS011;1552;51.952;7.618;2023-06-19T08:28:17;2.17;;;1.92;;
3083;SDS011;1552;51.952;7.618;2023-06-19T08:30:45;6.05;;;1.90;;
3083;SDS011;1552;51.952;7.618;2023-06-19T08:33:12;3.72;;;1.95;;
3083;SDS011;1552;51.952;7.618;2023-06-19T08:35:39;4.43;;;1.80;;
3083;SDS011;1552;51.952;7.618;2023-06-19T08:38:05;2.50;;;1.90;;
3083;SDS011;1552;51.952;7.618;2023-06-19T08:40:32;6.25;;;1.98;;
3083;SDS011;1552;51.952;7.618;2023-06-19T08:42:58;3.47;;;2.10;;
3083;SDS011;1552;51.952;7.618;2023-06-19T08:45:25;3.00;;;1.92;;
3083;SDS011;1552;51.952;7.618;2023-06-19T08:47:58;5.00;;;1.77;;
3083;SDS011;1552;51.952;7.618;2023-06-19T08:50:25;2.35;;;1.85;;
3083;SDS011;1552;51.952;7.618;2023-06-19T08:52:52;2.97;;;1.90;;
3083;SDS011;1552;51.952;7.618;2023-06-19T08:55:18;2.65;;;1.98;;
3083;SDS011;1552;51.952;7.618;2023-06-19T08:57:44;2.88;;;1.95;;
3083;SDS011;1552;51.952;7.618;2023-06-19T09:00:22;3.58;;;1.92;;
3083;SDS011;1552;51.952;7.618;2023-06-19T09:02:48;4.18;;;1.90;;
3083;SDS011;1552;51.952;7.618;2023-06-19T09:05:17;3.65;;;2.20;;
3083;SDS011;1552;51.952;7.618;2023-06-19T09:07:43;2.22;;;2.03;;
3083;SDS011;1552;51.952;7.618;2023-06-19T09:10:14;4.70;;;2.33;;
3083;SDS011;1552;51.952;7.618;2023-06-19T09:12:41;3.55;;;2.20;;
3083;SDS011;1552;51.952;7.618;2023-06-19T09:15:11;2.72;;;2.35;;
3083;SDS011;1552;51.952;7.618;2023-06-19T09:17:37;4.40;;;2.40;;
3083;SDS011;1552;51.952;7.618;2023-06-19T09:20:04;3.70;;;2.47;;
3083;SDS011;1552;51.952;7.618;2023-06-19T09:22:33;3.67;;;2.80;;
3083;SDS011;1552;51.952;7.618;2023-06-19T09:24:59;3.50;;;2.67;;
3083;SDS011;1552;51.952;7.618;2023-06-19T09:27:31;3.20;;;2.75;;
3083;SDS011;1552;51.952;7.618;2023-06-19T09:29:57;2.95;;;2.67;;
3083;SDS011;1552;51.952;7.618;2023-06-19T09:32:24;5.85;;;2.97;;
3083;SDS011;1552;51.952;7.618;2023-06-19T09:34:52;2.72;;;2.33;;
3083;SDS011;1552;51.952;7.618;2023-06-19T09:37:18;4.18;;;2.80;;
3083;SDS011;1552;51.952;7.618;2023-06-19T09:39:49;3.58;;;2.42;;
3083;SDS011;1552;51.952;7.618;2023-06-19T09:42:17;3.63;;;2.95;;
3083;SDS011;1552;51.952;7.618;2023-06-19T09:44:43;4.30;;;3.28;;
3083;SDS011;1552;51.952;7.618;2023-06-19T09:47:14;3.55;;;3.08;;
3083;SDS011;1552;51.952;7.618;2023-06-19T09:49:44;3.30;;;3.00;;
3083;SDS011;1552;51.952;7.618;2023-06-19T09:52:13;4.53;;;3.22;;
3083;SDS011;1552;51.952;7.618;2023-06-19T09:54:40;4.90;;;3.35;;
3083;SDS011;1552;51.952;7.618;2023-06-19T09:57:10;5.15;;;2.70;;
3083;SDS011;1552;51.952;7.618;2023-06-19T09:59:36;3.67;;;2.63;;
3083;SDS011;1552;51.952;7.618;2023-06-19T10:02:04;3.97;;;2.70;;
3083;SDS011;1552;51.952;7.618;2023-06-19T10:04:41;3.53;;;2.88;;
3083;SDS011;1552;51.952;7.618;2023-06-19T10:07:14;4.35;;;2.78;;
3083;SDS011;1552;51.952;7.618;2023-06-19T10:09:41;6.15;;;4.65;;
3083;SDS011;1552;51.952;7.618;2023-06-19T10:12:12;5.30;;;4.07;;
3083;SDS011;1552;51.952;7.618;2023-06-19T10:14:44;5.03;;;2.72;;
3083;SDS011;1552;51.952;7.618;2023-06-19T10:17:11;4.72;;;2.85;;
3083;SDS011;1552;51.952;7.618;2023-06-19T10:19:37;7.32;;;3.22;;
3083;SDS011;1552;51.952;7.618;2023-06-19T10:22:04;4.80;;;3.10;;
3083;SDS011;1552;51.952;7.618;2023-06-19T10:24:31;4.10;;;3.20;;
3083;SDS011;1552;51.952;7.618;2023-06-19T10:26:59;3.97;;;2.92;;
3083;SDS011;1552;51.952;7.618;2023-06-19T10:29:37;3.15;;;2.95;;
3083;SDS011;1552;51.952;7.618;2023-06-19T10:32:03;3.97;;;3.03;;
3083;SDS011;1552;51.952;7.618;2023-06-19T10:34:33;3.75;;;2.70;;
3083;SDS011;1552;51.952;7.618;2023-06-19T10:36:59;3.63;;;2.88;;
3083;SDS011;1552;51.952;7.618;2023-06-19T10:39:25;3.45;;;2.90;;
3083;SDS011;1552;51.952;7.618;2023-06-19T10:41:52;2.63;;;2.42;;
3083;SDS011;1552;51.952;7.618;2023-06-19T10:44:18;6.13;;;2.80;;
3083;SDS011;1552;51.952;7.618;2023-06-19T10:46:45;3.83;;;2.85;;
3083;SDS011;1552;51.952;7.618;2023-06-19T10:49:12;4.00;;;3.08;;
3083;SDS011;1552;51.952;7.618;2023-06-19T10:51:39;4.88;;;2.80;;
3083;SDS011;1552;51.952;7.618;2023-06-19T10:54:06;3.15;;;2.88;;
3083;SDS011;1552;51.952;7.618;2023-06-19T10:56:33;4.10;;;2.55;;
3083;SDS011;1552;51.952;7.618;2023-06-19T10:59:00;4.55;;;3.30;;
3083;SDS011;1552;51.952;7.618;2023-06-19T11:01:33;2.80;;;2.60;;
3083;SDS011;1552;51.952;7.618;2023-06-19T11:04:02;4.65;;;3.53;;
3083;SDS011;1552;51.952;7.618;2023-06-19T11:06:29;4.20;;;3.30;;
3083;SDS011;1552;51.952;7.618;2023-06-19T11:08:56;4.15;;;3.45;;
3083;SDS011;1552;51.952;7.618;2023-06-19T11:11:22;4.03;;;3.63;;
3083;SDS011;1552;51.952;7.618;2023-06-19T11:13:49;3.85;;;3.30;;
3083;SDS011;1552;51.952;7.618;2023-06-19T11:16:15;4.90;;;3.17;;
3083;SDS011;1552;51.952;7.618;2023-06-19T11:18:41;3.65;;;3.08;;
3083;SDS011;1552;51.952;7.618;2023-06-19T11:21:09;3.97;;;2.80;;
3083;SDS011;1552;51.952;7.618;2023-06-19T11:23:35;4.22;;;3.20;;
3083;SDS011;1552;51.952;7.618;2023-06-19T11:26:02;4.03;;;3.20;;
3083;SDS011;1552;51.952;7.618;2023-06-19T11:28:28;3.10;;;2.75;;
3083;SDS011;1552;51.952;7.618;2023-06-19T11:30:57;3.50;;;3.20;;
3083;SDS011;1552;51.952;7.618;2023-06-19T11:33:23;5.07;;;2.58;;
3083;SDS011;1552;51.952;7.618;2023-06-19T11:35:50;5.68;;;2.90;;
3083;SDS011;1552;51.952;7.618;2023-06-19T11:38:19;4.95;;;3.42;;
3083;SDS011;1552;51.952;7.618;2023-06-19T11:40:46;3.15;;;2.85;;
3083;SDS011;1552;51.952;7.618;2023-06-19T11:43:22;4.85;;;2.90;;
3083;SDS011;1552;51.952;7.618;2023-06-19T11:45:49;3.20;;;2.72;;
3083;SDS011;1552;51.952;7.618;2023-06-19T11:48:21;3.45;;;2.75;;
3083;SDS011;1552;51.952;7.618;2023-06-19T11:50:47;3.42;;;2.97;;
3083;SDS011;1552;51.952;7.618;2023-06-19T11:53:13;9.80;;;3.15;;
3083;SDS011;1552;51.952;7.618;2023-06-19T11:55:42;4.45;;;2.70;;
3083;SDS011;1552;51.952;7.618;2023-06-19T11:58:09;4.72;;;2.72;;
3083;SDS011;1552;51.952;7.618;2023-06-19T12:00:35;6.38;;;3.00;;
3083;SDS011;1552;51.952;7.618;2023-06-19T12:03:02;3.38;;;2.78;;
3083;SDS011;1552;51.952;7.618;2023-06-19T12:05:28;5.03;;;3.33;;
3083;SDS011;1552;51.952;7.618;2023-06-19T12:07:54;3.17;;;2.67;;
3083;SDS011;1552;51.952;7.618;2023-06-19T12:10:21;5.20;;;2.75;;
3083;SDS011;1552;51.952;7.618;2023-06-19T12:12:48;4.93;;;2.97;;
3083;SDS011;1552;51.952;7.618;2023-06-19T12:15:15;3.80;;;2.30;;
3083;SDS011;1552;51.952;7.618;2023-06-19T12:17:41;3.33;;;2.78;;
3083;SDS011;1552;51.952;7.618;2023-06-19T12:20:08;4.85;;;3.40;;
3083;SDS011;1552;51.952;7.618;2023-06-19T12:22:34;3.55;;;3.08;;
3083;SDS011;1552;51.952;7.618;2023-06-19T12:25:00;6.90;;;2.75;;
3083;SDS011;1552;51.952;7.618;2023-06-19T12:27:27;4.20;;;3.00;;
3083;SDS011;1552;51.952;7.618;2023-06-19T12:29:55;4.38;;;3.50;;
3083;SDS011;1552;51.952;7.618;2023-06-19T12:32:21;3.63;;;2.92;;
3083;SDS011;1552;51.952;7.618;2023-06-19T12:34:47;3.92;;;3.25;;
3083;SDS011;1552;51.952;7.618;2023-06-19T12:37:14;3.28;;;2.97;;
3083;SDS011;1552;51.952;7.618;2023-06-19T12:39:42;5.15;;;3.00;;
3083;SDS011;1552;51.952;7.618;2023-06-19T12:42:09;3.25;;;2.92;;
3083;SDS011;1552;51.952;7.618;2023-06-19T12:44:37;3.97;;;3.03;;
3083;SDS011;1552;51.952;7.618;2023-06-19T12:47:05;4.40;;;3.38;;
3083;SDS011;1552;51.952;7.618;2023-06-19T12:49:31;4.15;;;3.13;;
3083;SDS011;1552;51.952;7.618;2023-06-19T12:51:58;6.97;;;3.55;;
3083;SDS011;1552;51.952;7.618;2023-06-19T12:54:25;4.93;;;3.45;;
3083;SDS011;1552;51.952;7.618;2023-06-19T12:56:51;4.93;;;3.03;;
3083;SDS011;1552;51.952;7.618;2023-06-19T12:59:17;6.10;;;3.40;;
3083;SDS011;1552;51.952;7.618;2023-06-19T13:01:44;4.22;;;3.55;;
3083;SDS011;1552;51.952;7.618;2023-06-19T13:04:12;5.18;;;3.90;;
3083;SDS011;1552;51.952;7.618;2023-06-19T13:06:38;7.97;;;4.22;;
3083;SDS011;1552;51.952;7.618;2023-06-19T13:09:05;5.53;;;3.50;;
3083;SDS011;1552;51.952;7.618;2023-06-19T13:11:32;9.38;;;4.28;;
3083;SDS011;1552;51.952;7.618;2023-06-19T13:13:59;6.00;;;3.70;;
3083;SDS011;1552;51.952;7.618;2023-06-19T13:16:25;4.82;;;3.90;;
3083;SDS011;1552;51.952;7.618;2023-06-19T13:18:52;5.90;;;3.60;;
3083;SDS011;1552;51.952;7.618;2023-06-19T13:21:20;4.50;;;3.35;;
3083;SDS011;1552;51.952;7.618;2023-06-19T13:23:46;9.43;;;3.50;;
3083;SDS011;1552;51.952;7.618;2023-06-19T13:26:14;6.90;;;3.72;;
3083;SDS011;1552;51.952;7.618;2023-06-19T13:28:40;5.70;;;3.67;;
3083;SDS011;1552;51.952;7.618;2023-06-19T13:31:06;7.82;;;4.20;;
3083;SDS011;1552;51.952;7.618;2023-06-19T13:33:33;4.82;;;3.90;;
3083;SDS011;1552;51.952;7.618;2023-06-19T13:35:59;5.97;;;3.90;;
3083;SDS011;1552;51.952;7.618;2023-06-19T13:38:27;5.80;;;3.88;;
3083;SDS011;1552;51.952;7.618;2023-06-19T13:40:53;5.65;;;4.40;;
3083;SDS011;1552;51.952;7.618;2023-06-19T13:43:20;6.90;;;4.32;;
3083;SDS011;1552;51.952;7.618;2023-06-19T13:45:48;5.10;;;3.80;;
3083;SDS011;1552;51.952;7.618;2023-06-19T13:48:14;5.47;;;4.05;;
3083;SDS011;1552;51.952;7.618;2023-06-19T13:53:48;5.03;;;4.40;;
3083;SDS011;1552;51.952;7.618;2023-06-19T13:56:14;5.50;;;3.85;;
3083;SDS011;1552;51.952;7.618;2023-06-19T13:58:41;5.13;;;3.85;;
3083;SDS011;1552;51.952;7.618;2023-06-19T14:01:07;6.80;;;5.05;;
3083;SDS011;1552;51.952;7.618;2023-06-19T14:03:36;5.32;;;4.20;;
3083;SDS011;1552;51.952;7.618;2023-06-19T14:06:02;5.63;;;4.25;;
3083;SDS011;1552;51.952;7.618;2023-06-19T14:08:29;6.32;;;4.40;;
3083;SDS011;1552;51.952;7.618;2023-06-19T14:10:57;4.65;;;4.13;;
3083;SDS011;1552;51.952;7.618;2023-06-19T14:13:23;5.90;;;4.22;;
3083;SDS011;1552;51.952;7.618;2023-06-19T14:15:49;5.28;;;4.47;;
3083;SDS011;1552;51.952;7.618;2023-06-19T14:18:16;7.30;;;4.57;;
3083;SDS011;1552;51.952;7.618;2023-06-19T14:20:42;8.13;;;4.95;;
3083;SDS011;1552;51.952;7.618;2023-06-19T14:23:08;5.70;;;4.45;;
3083;SDS011;1552;51.952;7.618;2023-06-19T14:25:35;6.15;;;4.32;;
3083;SDS011;1552;51.952;7.618;2023-06-19T14:28:03;5.15;;;4.22;;
3083;SDS011;1552;51.952;7.618;2023-06-19T14:30:30;6.70;;;4.60;;
3083;SDS011;1552;51.952;7.618;2023-06-19T14:32:56;5.40;;;4.40;;
3083;SDS011;1552;51.952;7.618;2023-06-19T14:35:22;5.35;;;4.38;;
3083;SDS011;1552;51.952;7.618;2023-06-19T14:37:49;7.10;;;5.22;;
3083;SDS011;1552;51.952;7.618;2023-06-19T14:40:16;7.05;;;4.75;;
3083;SDS011;1552;51.952;7.618;2023-06-19T14:42:43;5.93;;;4.57;;
3083;SDS011;1552;51.952;7.618;2023-06-19T14:45:11;6.63;;;5.22;;
3083;SDS011;1552;51.952;7.618;2023-06-19T14:47:37;6.53;;;5.43;;
3083;SDS011;1552;51.952;7.618;2023-06-19T14:50:03;7.85;;;5.20;;
3083;SDS011;1552;51.952;7.618;2023-06-19T14:52:30;5.18;;;4.68;;
3083;SDS011;1552;51.952;7.618;2023-06-19T14:54:56;5.18;;;4.22;;
3083;SDS011;1552;51.952;7.618;2023-06-19T14:57:24;7.40;;;4.95;;
3083;SDS011;1552;51.952;7.618;2023-06-19T14:59:50;6.30;;;4.55;;
3083;SDS011;1552;51.952;7.618;2023-06-19T15:02:18;5.70;;;4.90;;
3083;SDS011;1552;51.952;7.618;2023-06-19T15:04:44;5.00;;;4.50;;
3083;SDS011;1552;51.952;7.618;2023-06-19T15:07:10;5.55;;;4.50;;
3083;SDS011;1552;51.952;7.618;2023-06-19T15:09:37;5.95;;;4.85;;
3083;SDS011;1552;51.952;7.618;2023-06-19T15:12:03;6.88;;;5.25;;
3083;SDS011;1552;51.952;7.618;2023-06-19T15:14:30;6.00;;;5.40;;
3083;SDS011;1552;51.952;7.618;2023-06-19T15:16:58;4.97;;;4.47;;